Time;durP1;ratioP1;P1;durP2;ratioP2;P2;SDS_P1;SDS_P2;PMS_P1;PMS_P2;Temp;Humidity;BMP_temperature;BMP_pressure;BME280_temperature;BME280_humidity;BME280_pressure;Samples;Min_cycle;Max_cycle;Signal;HPM_P1;HPM_P2
2023/03/27 00:00:28;;;;;;;;;;;;;;;11.70;67.06;98812.19;5370167;32;34957;-72
2023/03/27 00:03:31;;;;;;;;;;;;;;;12.55;63.97;98801.88;5350648;32;35184;-63
2023/03/27 00:06:33;;;;;;;;;;;;;;;11.63;68.11;98809.16;5344754;32;35978;-73
2023/03/27 00:09:36;;;;;;;;;;;;;;;12.02;67.09;98796.84;5366746;32;34592;-73
2023/03/27 00:12:38;;;;;;;;;;;;;;;12.39;65.14;98794.25;5356027;32;35372;-61
2023/03/27 00:15:40;;;;;;;;;;;;;;;13.16;61.65;98784.19;5372007;32;44677;-63
2023/03/27 00:18:42;;;;;;;;;;;;;;;12.51;65.29;98777.56;5355979;32;35048;-62
2023/03/27 00:21:43;;;;;;;;;;;;;;;12.19;67.13;98777.22;5371565;32;35599;-64
2023/03/27 00:24:45;;;;;;;;;;;;;;;12.08;68.47;98766.59;5353904;32;35534;-63
2023/03/27 00:27:48;;;;;;;;;;;;;;;12.91;64.48;98764.91;5361857;32;35312;-62
2023/03/27 00:30:50;;;;;;;;;;;;;;;12.54;65.05;98753.59;5366783;32;35079;-71
2023/03/27 00:33:51;;;;;;;;;;;;;;;12.65;66.36;98758.94;5355807;32;34885;-63
2023/03/27 00:36:53;;;;;;;;;;;;;;;12.76;64.74;98758.16;5371546;32;34485;-72
2023/03/27 00:39:55;;;;;;;;;;;;;;;12.48;67.34;98749.59;5354678;32;35452;-73
2023/03/27 00:42:58;;;;;;;;;;;;;;;11.89;69.69;98749.47;5369027;32;35222;-64
2023/03/27 00:46:02;;;;;;;;;;;;;;;11.99;68.79;98749.69;5353285;32;34843;-64
2023/03/27 00:49:05;;;;;;;;;;;;;;;12.42;66.99;98738.69;5360586;32;34577;-75
2023/03/27 00:52:07;;;;;;;;;;;;;;;13.07;64.57;98727.66;5368040;32;34811;-63
2023/03/27 00:55:13;;;;;;;;;;;;;;;12.59;66.51;98725.12;5354227;32;46912;-63
2023/03/27 00:58:16;;;;;;;;;;;;;;;12.57;66.31;98727.03;5371607;32;35400;-73
2023/03/27 01:01:18;;;;;;;;;;;;;;;12.34;68.28;98718.16;5352717;32;35134;-62
2023/03/27 01:04:20;;;;;;;;;;;;;;;13.41;64.01;98711.97;5358759;32;35363;-74
2023/03/27 01:07:23;;;;;;;;;;;;;;;12.99;64.85;98707.16;5349153;32;35272;-73
2023/03/27 01:10:29;;;;;;;;;;;;;;;12.82;65.31;98694.44;5357260;32;35570;-64
2023/03/27 01:13:34;;;;;;;;;;;;;;;11.69;71.00;98700.00;5370041;32;35457;-63
2023/03/27 01:16:45;;;;;;;;;;;;;;;13.03;66.19;98689.31;5354321;32;35272;-62
2023/03/27 01:20:08;;;;;;;;;;;;;;;12.93;65.36;98670.69;5372011;32;47400;-60
2023/03/27 01:23:15;;;;;;;;;;;;;;;11.42;72.55;98676.47;5356164;32;44882;-64
2023/03/27 01:26:56;;;;;;;;;;;;;;;11.71;72.13;98677.03;5354136;32;34799;-73
2023/03/27 01:30:18;;;;;;;;;;;;;;;12.36;69.90;98668.00;5364461;32;35325;-62
2023/03/27 01:33:20;;;;;;;;;;;;;;;12.99;65.50;98664.97;5354314;32;35420;-62
2023/03/27 01:36:45;;;;;;;;;;;;;;;12.68;66.30;98642.72;5367912;32;34941;-73
2023/03/27 01:40:07;;;;;;;;;;;;;;;12.81;66.80;98663.72;5341321;32;44849;-71
2023/03/27 01:43:10;;;;;;;;;;;;;;;12.99;65.45;98657.06;5350153;32;46926;-62
2023/03/27 01:46:12;;;;;;;;;;;;;;;12.90;64.76;98627.94;5368829;32;35116;-74
2023/03/27 01:49:26;;;;;;;;;;;;;;;13.08;65.18;98647.62;5354138;32;34573;-72
2023/03/27 01:52:30;;;;;;;;;;;;;;;12.90;65.99;98649.03;5364070;32;34447;-62
2023/03/27 01:55:33;;;;;;;;;;;;;;;12.34;68.31;98649.66;5350517;32;35221;-62
2023/03/27 01:58:37;;;;;;;;;;;;;;;11.89;70.05;98644.16;5353089;32;36072;-72
2023/03/27 02:01:41;;;;;;;;;;;;;;;11.26;72.96;98647.72;5371386;32;47421;-62
2023/03/27 02:04:45;;;;;;;;;;;;;;;11.33;73.81;98646.38;5337177;32;35906;-73
2023/03/27 02:08:00;;;;;;;;;;;;;;;11.30;74.24;98651.00;5365791;32;34995;-73
2023/03/27 02:11:03;;;;;;;;;;;;;;;12.57;68.11;98640.06;5354187;32;35385;-74
2023/03/27 02:14:16;;;;;;;;;;;;;;;12.47;67.64;98628.53;5353743;32;33598;-74
2023/03/27 02:17:19;;;;;;;;;;;;;;;12.28;66.74;98644.84;5368453;32;47998;-62
2023/03/27 02:20:21;;;;;;;;;;;;;;;11.87;69.22;98646.06;5353190;32;35058;-62
2023/03/27 02:23:23;;;;;;;;;;;;;;;11.62;69.79;98646.13;5372176;32;34842;-63
2023/03/27 02:26:25;;;;;;;;;;;;;;;11.63;70.74;98637.25;5359695;32;35042;-61
2023/03/27 02:29:30;;;;;;;;;;;;;;;11.56;70.76;98622.88;5364743;32;34366;-62
2023/03/27 02:32:35;;;;;;;;;;;;;;;11.35;73.31;98630.50;5362819;32;35754;-73
2023/03/27 02:35:50;;;;;;;;;;;;;;;10.83;75.71;98624.41;5354628;32;34859;-63
2023/03/27 02:38:54;;;;;;;;;;;;;;;10.61;78.64;98602.31;5372137;32;35623;-59
2023/03/27 02:41:56;;;;;;;;;;;;;;;10.57;79.73;98593.81;5350929;32;34679;-73
2023/03/27 02:45:04;;;;;;;;;;;;;;;10.32;79.57;98570.13;5368576;32;34007;-74
2023/03/27 02:48:09;;;;;;;;;;;;;;;10.44;77.88;98570.16;5355371;32;34495;-63
2023/03/27 02:51:16;;;;;;;;;;;;;;;10.52;77.68;98567.00;5351595;32;44809;-73
2023/03/27 02:54:18;;;;;;;;;;;;;;;10.58;78.47;98569.22;5371300;32;34896;-75
2023/03/27 02:57:22;;;;;;;;;;;;;;;10.45;76.67;98563.13;5350473;32;34956;-74
2023/03/27 03:00:27;;;;;;;;;;;;;;;10.81;75.08;98565.84;5370547;32;35482;-71
2023/03/27 03:03:29;;;;;;;;;;;;;;;11.20;74.27;98552.66;5350457;32;36241;-74
2023/03/27 03:06:31;;;;;;;;;;;;;;;10.89;75.57;98546.09;5348684;32;37435;-62
2023/03/27 03:09:33;;;;;;;;;;;;;;;10.49;76.74;98548.81;5361204;32;35742;-63
2023/03/27 03:12:41;;;;;;;;;;;;;;;10.87;76.91;98542.72;5352247;32;44858;-62
2023/03/27 03:15:44;;;;;;;;;;;;;;;11.51;73.59;98532.91;5369994;32;34849;-63
2023/03/27 03:18:46;;;;;;;;;;;;;;;10.82;75.65;98546.53;5353026;32;35117;-62
2023/03/27 03:21:49;;;;;;;;;;;;;;;10.98;75.97;98548.06;5369980;32;34752;-62
2023/03/27 03:24:51;;;;;;;;;;;;;;;11.56;75.67;98543.94;5354825;32;35304;-74
2023/03/27 03:27:56;;;;;;;;;;;;;;;11.71;73.40;98539.34;5363129;32;34834;-62
2023/03/27 03:30:58;;;;;;;;;;;;;;;11.92;71.91;98538.66;5364382;32;35717;-64
2023/03/27 03:34:02;;;;;;;;;;;;;;;10.63;75.06;98540.84;5355880;32;35368;-62
2023/03/27 03:37:04;;;;;;;;;;;;;;;11.26;73.57;98539.91;5370596;32;36319;-74
2023/03/27 03:40:10;;;;;;;;;;;;;;;11.53;72.54;98544.16;5352217;32;35304;-73
2023/03/27 03:43:12;;;;;;;;;;;;;;;11.04;74.56;98545.03;5368236;32;46820;-62
2023/03/27 03:46:14;;;;;;;;;;;;;;;11.87;71.44;98524.16;5354327;32;34812;-62
2023/03/27 03:49:16;;;;;;;;;;;;;;;11.70;71.80;98537.66;5360811;32;34274;-62
2023/03/27 03:52:18;;;;;;;;;;;;;;;11.63;73.94;98527.59;5368665;32;34691;-73
2023/03/27 03:55:20;;;;;;;;;;;;;;;11.81;73.57;98525.44;5355339;32;35394;-61
2023/03/27 03:58:22;;;;;;;;;;;;;;;12.15;72.17;98529.03;5371739;32;34810;-73
2023/03/27 04:01:36;;;;;;;;;;;;;;;10.83;76.76;98537.69;5354587;32;35023;-63
2023/03/27 04:04:38;;;;;;;;;;;;;;;10.63;79.37;98532.97;5355238;32;44291;-74
2023/03/27 04:07:41;;;;;;;;;;;;;;;11.27;76.71;98519.72;5354315;32;37240;-74
2023/03/27 04:10:43;;;;;;;;;;;;;;;10.26;79.29;98529.37;5355253;32;34594;-61
2023/03/27 04:13:45;;;;;;;;;;;;;;;10.25;81.46;98525.91;5373185;32;33530;-65
2023/03/27 04:16:46;;;;;;;;;;;;;;;10.61;79.80;98526.12;5352733;32;37333;-62
2023/03/27 04:19:48;;;;;;;;;;;;;;;11.04;80.15;98521.34;5372385;32;34555;-62
2023/03/27 04:22:53;;;;;;;;;;;;;;;9.94;82.17;98523.59;5355843;32;34990;-72
2023/03/27 04:25:58;;;;;;;;;;;;;;;10.44;80.82;98525.50;5370135;32;35435;-71
2023/03/27 04:29:00;;;;;;;;;;;;;;;10.61;80.64;98526.97;5361213;32;35073;-74
2023/03/27 04:32:04;;;;;;;;;;;;;;;10.68;78.79;98532.63;5355307;32;34700;-74
2023/03/27 04:35:07;;;;;;;;;;;;;;;10.63;78.05;98527.72;5373190;32;35664;-63
2023/03/27 04:38:09;;;;;;;;;;;;;;;10.45;80.08;98521.94;5355844;32;45140;-63
2023/03/27 04:41:10;;;;;;;;;;;;;;;11.17;76.12;98514.28;5372270;32;35811;-73
2023/03/27 04:44:13;;;;;;;;;;;;;;;10.54;78.19;98525.69;5352582;32;35037;-63
2023/03/27 04:47:15;;;;;;;;;;;;;;;10.41;78.37;98525.69;5368719;32;34320;-62
2023/03/27 04:50:17;;;;;;;;;;;;;;;10.75;77.81;98507.63;5352057;32;35794;-62
2023/03/27 04:53:19;;;;;;;;;;;;;;;10.93;77.78;98502.88;5361403;32;34718;-74
2023/03/27 04:56:21;;;;;;;;;;;;;;;9.66;83.00;98512.31;5373110;32;34224;-72
2023/03/27 04:59:23;;;;;;;;;;;;;;;10.30;80.98;98517.69;5355700;32;34681;-75
2023/03/27 05:02:25;;;;;;;;;;;;;;;9.94;82.19;98505.22;5374394;32;35194;-75
2023/03/27 05:05:27;;;;;;;;;;;;;;;10.33;81.77;98511.41;5336879;32;34893;-62
2023/03/27 05:08:29;;;;;;;;;;;;;;;10.04;81.45;98508.91;5367323;32;35165;-74
2023/03/27 05:11:31;;;;;;;;;;;;;;;10.33;80.40;98503.53;5359039;32;37325;-62
2023/03/27 05:14:34;;;;;;;;;;;;;;;10.25;80.99;98496.19;5353572;32;35422;-73
2023/03/27 05:17:39;;;;;;;;;;;;;;;11.22;75.44;98485.88;5371453;32;34798;-63
2023/03/27 05:20:42;;;;;;;;;;;;;;;10.00;80.32;98473.34;5347095;32;45074;-62
2023/03/27 05:23:44;;;;;;;;;;;;;;;10.20;80.98;98490.38;5372124;32;34679;-62
2023/03/27 05:26:47;;;;;;;;;;;;;;;9.96;81.08;98490.22;5355208;32;34948;-63
2023/03/27 05:29:49;;;;;;;;;;;;;;;10.62;77.85;98491.84;5360636;32;34929;-73
2023/03/27 05:32:51;;;;;;;;;;;;;;;10.71;77.79;98491.25;5366358;32;35835;-63
2023/03/27 05:35:53;;;;;;;;;;;;;;;9.88;80.24;98493.34;5351977;32;34884;-63
2023/03/27 05:38:56;;;;;;;;;;;;;;;9.63;80.90;98485.41;5371328;32;35081;-62
2023/03/27 05:41:58;;;;;;;;;;;;;;;10.12;80.15;98485.63;5345345;32;34149;-74
2023/03/27 05:45:01;;;;;;;;;;;;;;;10.29;79.86;98484.50;5372900;32;35735;-74
2023/03/27 05:48:03;;;;;;;;;;;;;;;9.60;80.33;98473.34;5358493;32;37100;-61
2023/03/27 05:51:06;;;;;;;;;;;;;;;10.17;78.23;98446.75;5358929;32;36114;-71
2023/03/27 05:54:08;;;;;;;;;;;;;;;10.60;76.18;98469.28;5375459;32;37664;-61
2023/03/27 05:57:10;;;;;;;;;;;;;;;10.29;77.80;98461.72;5357845;32;34098;-60
2023/03/27 06:00:12;;;;;;;;;;;;;;;10.29;77.02;98464.34;5368493;32;33478;-61
2023/03/27 06:03:14;;;;;;;;;;;;;;;10.31;76.90;98461.63;5356108;32;34859;-59
2023/03/27 06:06:17;;;;;;;;;;;;;;;9.37;80.99;98459.09;5348741;32;34158;-72
2023/03/27 06:09:21;;;;;;;;;;;;;;;10.05;79.61;98460.75;5358347;32;34307;-60
2023/03/27 06:12:23;;;;;;;;;;;;;;;9.76;81.72;98450.41;5364110;32;34424;-62
2023/03/27 06:15:25;;;;;;;;;;;;;;;9.74;80.75;98452.28;5370238;32;38144;-59
2023/03/27 06:18:27;;;;;;;;;;;;;;;9.65;79.72;98446.81;5361212;32;34218;-72
2023/03/27 06:21:29;;;;;;;;;;;;;;;9.66;80.93;98458.97;5370504;32;34279;-60
2023/03/27 06:24:32;;;;;;;;;;;;;;;10.02;78.58;98455.69;5367377;32;35370;-70
2023/03/27 06:27:34;;;;;;;;;;;;;;;9.89;79.35;98452.22;5370178;32;34979;-71
2023/03/27 06:30:37;;;;;;;;;;;;;;;9.50;80.03;98454.75;5357541;32;34417;-74
2023/03/27 06:33:39;;;;;;;;;;;;;;;10.37;76.75;98448.09;5366744;32;46593;-83
2023/03/27 06:36:41;;;;;;;;;;;;;;;10.01;77.21;98448.78;5365790;32;34731;-63
2023/03/27 06:39:44;;;;;;;;;;;;;;;10.26;76.70;98438.31;5354047;32;35984;-60
2023/03/27 06:42:56;;;;;;;;;;;;;;;10.34;75.64;98447.44;5369120;32;34740;-86
2023/03/27 06:45:58;;;;;;;;;;;;;;;9.56;79.00;98456.13;5359307;32;35372;-63
2023/03/27 06:49:01;;;;;;;;;;;;;;;10.38;76.45;98449.75;5380391;32;35778;-73
2023/03/27 06:52:03;;;;;;;;;;;;;;;10.10;77.14;98448.13;5364368;32;36213;-61
2023/03/27 06:55:06;;;;;;;;;;;;;;;9.81;77.53;98457.12;5362405;32;37337;-61
2023/03/27 06:58:17;;;;;;;;;;;;;;;10.13;75.30;98450.56;5378114;32;43713;-77
2023/03/27 07:01:20;;;;;;;;;;;;;;;9.98;75.89;98448.97;5354675;32;34376;-68
2023/03/27 07:04:22;;;;;;;;;;;;;;;9.82;78.21;98443.06;5365244;32;35160;-65
2023/03/27 07:07:24;;;;;;;;;;;;;;;9.45;77.92;98451.56;5350623;32;35383;-62
2023/03/27 07:10:25;;;;;;;;;;;;;;;9.32;78.78;98439.37;5360829;32;34386;-61
2023/03/27 07:13:27;;;;;;;;;;;;;;;9.38;78.57;98449.44;5365870;32;35146;-61
2023/03/27 07:16:30;;;;;;;;;;;;;;;9.95;76.29;98454.44;5362111;32;34249;-61
2023/03/27 07:19:32;;;;;;;;;;;;;;;9.83;76.56;98456.09;5376258;32;34148;-81
2023/03/27 07:22:34;;;;;;;;;;;;;;;10.06;74.74;98464.22;5364981;32;34088;-62
2023/03/27 07:25:36;;;;;;;;;;;;;;;10.30;76.13;98460.81;5373429;32;35531;-64
2023/03/27 07:28:38;;;;;;;;;;;;;;;10.47;72.76;98461.41;5362388;32;43739;-61
2023/03/27 07:31:41;;;;;;;;;;;;;;;10.92;72.62;98454.72;5369035;32;35079;-63
2023/03/27 07:34:52;;;;;;;;;;;;;;;10.51;75.24;98458.47;5371465;32;35442;-64
2023/03/27 07:37:54;;;;;;;;;;;;;;;9.83;76.49;98460.50;5367263;32;34389;-65
2023/03/27 07:40:56;;;;;;;;;;;;;;;9.93;76.85;98451.91;5379126;32;34795;-67
2023/03/27 07:43:58;;;;;;;;;;;;;;;10.27;75.20;98461.00;5363471;32;35281;-74
2023/03/27 07:47:00;;;;;;;;;;;;;;;9.93;76.28;98467.66;5379006;32;34397;-65
2023/03/27 07:50:02;;;;;;;;;;;;;;;10.16;73.76;98473.12;5369557;32;34387;-76
2023/03/27 07:53:05;;;;;;;;;;;;;;;10.76;72.64;98477.78;5359135;32;35274;-70
2023/03/27 07:56:07;;;;;;;;;;;;;;;10.30;74.88;98480.94;5370907;32;34752;-62
2023/03/27 07:59:10;;;;;;;;;;;;;;;9.90;76.21;98475.72;5345303;32;44048;-59
2023/03/27 08:02:12;;;;;;;;;;;;;;;9.98;75.60;98478.69;5377406;32;34192;-68
2023/03/27 08:05:14;;;;;;;;;;;;;;;9.93;75.91;98478.16;5346275;32;34450;-64
2023/03/27 08:08:16;;;;;;;;;;;;;;;9.96;75.32;98477.94;5370187;32;34446;-63
2023/03/27 08:11:19;;;;;;;;;;;;;;;9.53;77.34;98468.59;5357045;32;34061;-68
2023/03/27 08:14:31;;;;;;;;;;;;;;;10.65;73.27;98464.56;5366933;32;34408;-64
2023/03/27 08:17:34;;;;;;;;;;;;;;;9.56;76.13;98471.88;5376994;32;34832;-67
2023/03/27 08:20:37;;;;;;;;;;;;;;;10.10;75.70;98468.28;5358230;32;34360;-65
2023/03/27 08:23:44;;;;;;;;;;;;;;;10.78;73.18;98481.97;5371854;32;46187;-62
2023/03/27 08:26:46;;;;;;;;;;;;;;;9.39;77.84;98478.19;5363591;32;34267;-66
2023/03/27 08:29:48;;;;;;;;;;;;;;;10.41;74.68;98493.34;5380748;32;34595;-67
2023/03/27 08:32:50;;;;;;;;;;;;;;;10.25;75.53;98483.91;5373203;32;34801;-63
2023/03/27 08:35:52;;;;;;;;;;;;;;;10.21;74.72;98486.78;5370611;32;34333;-67
2023/03/27 08:38:54;;;;;;;;;;;;;;;10.65;73.81;98491.66;5378171;32;34278;-62
2023/03/27 08:42:00;;;;;;;;;;;;;;;9.75;77.61;98498.56;5366958;32;34059;-67
2023/03/27 08:45:03;;;;;;;;;;;;;;;9.85;75.82;98500.56;5380852;32;34726;-68
2023/03/27 08:48:08;;;;;;;;;;;;;;;9.35;77.56;98474.09;5366393;32;34841;-69
2023/03/27 08:51:17;;;;;;;;;;;;;;;10.11;75.40;98504.09;5374937;32;44602;-68
2023/03/27 08:54:30;;;;;;;;;;;;;;;10.60;74.46;98508.69;5371895;32;34359;-64
2023/03/27 08:57:33;;;;;;;;;;;;;;;10.13;77.06;98510.94;5363899;32;34274;-60
2023/03/27 09:00:37;;;;;;;;;;;;;;;10.51;74.84;98504.91;5381234;32;34660;-63
2023/03/27 09:03:51;;;;;;;;;;;;;;;10.77;73.08;98509.22;5356164;32;44515;-67
2023/03/27 09:07:11;;;;;;;;;;;;;;;11.00;72.01;98506.75;5364893;32;35087;-71
2023/03/27 09:10:20;;;;;;;;;;;;;;;10.50;74.89;98509.34;5372151;32;46635;-61
2023/03/27 09:13:27;;;;;;;;;;;;;;;10.21;74.52;98521.75;5362997;32;34366;-62
2023/03/27 09:16:29;;;;;;;;;;;;;;;10.57;75.24;98528.97;5373021;32;34799;-66
2023/03/27 09:19:36;;;;;;;;;;;;;;;11.09;72.19;98514.84;5365267;32;34263;-70
2023/03/27 09:22:40;;;;;;;;;;;;;;;11.09;71.94;98519.25;5371565;32;44644;-60
2023/03/27 09:25:45;;;;;;;;;;;;;;;11.03;73.37;98519.69;5363299;32;34431;-67
2023/03/27 09:28:58;;;;;;;;;;;;;;;10.68;75.57;98530.84;5367183;32;34370;-63
2023/03/27 09:32:00;;;;;;;;;;;;;;;10.46;76.59;98528.03;5369024;32;34745;-67
2023/03/27 09:35:03;;;;;;;;;;;;;;;10.48;75.55;98513.00;5358278;32;36782;-68
2023/03/27 09:38:29;;;;;;;;;;;;;;;10.40;75.77;98520.56;5367262;32;36184;-62
2023/03/27 09:41:39;;;;;;;;;;;;;;;9.63;80.31;98543.97;5360945;32;33554;-72
2023/03/27 09:44:41;;;;;;;;;;;;;;;9.86;79.45;98539.84;5352189;32;44468;-84
2023/03/27 09:47:55;;;;;;;;;;;;;;;9.20;80.54;98556.31;5376062;32;35434;-64
2023/03/27 09:50:57;;;;;;;;;;;;;;;9.38;80.61;98552.53;5361073;32;34345;-66
2023/03/27 09:53:59;;;;;;;;;;;;;;;9.05;82.84;98557.28;5373303;32;35718;-61
2023/03/27 09:57:03;;;;;;;;;;;;;;;8.75;84.83;98565.22;5363713;32;34244;-61
2023/03/27 10:00:14;;;;;;;;;;;;;;;9.35;81.07;98567.66;5372511;32;34332;-65
2023/03/27 10:03:17;;;;;;;;;;;;;;;8.89;83.78;98573.97;5374636;32;46602;-62
2023/03/27 10:06:25;;;;;;;;;;;;;;;9.74;82.42;98565.09;5343998;32;34900;-63
2023/03/27 10:09:33;;;;;;;;;;;;;;;9.54;79.62;98570.78;5374590;32;35621;-61
2023/03/27 10:12:35;;;;;;;;;;;;;;;8.81;82.67;98581.41;5365587;32;35713;-62
2023/03/27 10:15:38;;;;;;;;;;;;;;;9.40;81.72;98573.41;5372608;32;35588;-63
2023/03/27 10:18:41;;;;;;;;;;;;;;;9.77;80.73;98580.63;5366616;32;43663;-71
2023/03/27 10:21:43;;;;;;;;;;;;;;;8.66;80.26;98561.41;5358411;32;34872;-72
2023/03/27 10:24:46;;;;;;;;;;;;;;;8.45;82.52;98571.38;5370223;32;35087;-68
2023/03/27 10:27:48;;;;;;;;;;;;;;;9.40;78.09;98576.03;5356994;32;34799;-68
2023/03/27 10:31:00;;;;;;;;;;;;;;;9.18;80.00;98582.63;5374611;32;35564;-62
2023/03/27 10:34:03;;;;;;;;;;;;;;;10.00;76.85;98580.94;5358670;32;36529;-66
2023/03/27 10:37:19;;;;;;;;;;;;;;;10.35;74.78;98586.50;5375554;32;34118;-67
2023/03/27 10:40:25;;;;;;;;;;;;;;;9.18;77.63;98600.16;5373272;32;33653;-64
2023/03/27 10:43:29;;;;;;;;;;;;;;;9.67;77.50;98595.28;5358065;32;34233;-65
2023/03/27 10:46:31;;;;;;;;;;;;;;;9.09;79.81;98598.09;5370099;32;35697;-66
2023/03/27 10:49:33;;;;;;;;;;;;;;;9.38;78.92;98586.62;5360097;32;33081;-61
2023/03/27 10:52:47;;;;;;;;;;;;;;;9.33;80.35;98604.44;5378396;32;34371;-61
2023/03/27 10:56:01;;;;;;;;;;;;;;;10.13;75.80;98594.09;5365080;32;35571;-68
2023/03/27 10:59:05;;;;;;;;;;;;;;;9.04;80.39;98608.00;5360153;32;35839;-62
2023/03/27 11:02:11;;;;;;;;;;;;;;;8.77;79.16;98611.38;5372232;32;35582;-66
2023/03/27 11:05:18;;;;;;;;;;;;;;;8.56;80.94;98612.63;5342280;32;44693;-67
2023/03/27 11:08:21;;;;;;;;;;;;;;;8.55;81.14;98617.03;5371739;32;34320;-66
2023/03/27 11:11:27;;;;;;;;;;;;;;;8.99;80.49;98617.94;5361983;32;34243;-65
2023/03/27 11:14:45;;;;;;;;;;;;;;;8.78;82.04;98612.22;5360997;32;34992;-66
2023/03/27 11:17:53;;;;;;;;;;;;;;;8.97;82.62;98623.28;5371592;32;44457;-70
2023/03/27 11:20:58;;;;;;;;;;;;;;;8.39;80.66;98624.94;5351371;32;35533;-62
2023/03/27 11:24:00;;;;;;;;;;;;;;;8.75;81.50;98620.22;5367639;32;34568;-62
2023/03/27 11:27:05;;;;;;;;;;;;;;;8.90;79.95;98628.03;5342549;32;34239;-67
2023/03/27 11:30:07;;;;;;;;;;;;;;;9.06;79.23;98627.09;5366825;32;34410;-65
2023/03/27 11:33:27;;;;;;;;;;;;;;;9.96;75.94;98621.44;5362492;32;45359;-77
2023/03/27 11:36:36;;;;;;;;;;;;;;;9.99;73.77;98619.47;5360420;32;33677;-63
2023/03/27 11:39:52;;;;;;;;;;;;;;;9.39;78.66;98630.25;5374593;32;44594;-76
2023/03/27 11:42:54;;;;;;;;;;;;;;;8.93;78.02;98635.69;5360061;32;35514;-74
2023/03/27 11:46:15;;;;;;;;;;;;;;;9.88;76.70;98631.59;5370077;32;34590;-74
2023/03/27 11:49:23;;;;;;;;;;;;;;;9.15;78.67;98616.06;5363450;32;44612;-73
2023/03/27 11:52:28;;;;;;;;;;;;;;;9.43;78.59;98626.53;5358082;32;34065;-72
2023/03/27 11:55:50;;;;;;;;;;;;;;;9.93;75.88;98629.53;5375803;32;34244;-81
2023/03/27 11:58:58;;;;;;;;;;;;;;;9.30;80.59;98636.09;5362343;32;34821;-60
2023/03/27 12:02:35;;;;;;;;;;;;;;;9.64;77.91;98637.44;5367165;32;34988;-60
2023/03/27 12:05:54;;;;;;;;;;;;;;;9.80;76.02;98612.88;5270858;32;34308;-61
2023/03/27 12:08:59;;;;;;;;;;;;;;;10.50;75.05;98624.06;5368111;32;35647;-64
2023/03/27 12:12:10;;;;;;;;;;;;;;;10.53;75.37;98631.72;5373174;32;36024;-74
2023/03/27 12:15:24;;;;;;;;;;;;;;;10.24;74.96;98631.88;5361946;32;44585;-62
2023/03/27 12:18:35;;;;;;;;;;;;;;;11.00;73.89;98632.91;5363447;32;37348;-63
2023/03/27 12:21:50;;;;;;;;;;;;;;;10.39;73.95;98637.91;5375285;32;47289;-80
2023/03/27 12:24:58;;;;;;;;;;;;;;;10.88;73.67;98639.00;5365620;32;35225;-67
2023/03/27 12:28:07;;;;;;;;;;;;;;;10.84;72.65;98644.50;5378239;32;34624;-71
2023/03/27 12:31:42;;;;;;;;;;;;;;;10.11;72.43;98649.34;5367283;32;34438;-59
2023/03/27 12:34:55;;;;;;;;;;;;;;;9.76;74.27;98656.81;5366252;32;47943;-62
2023/03/27 12:38:01;;;;;;;;;;;;;;;10.55;71.62;98650.84;5373291;32;34399;-61
2023/03/27 12:41:20;;;;;;;;;;;;;;;9.74;69.93;98666.59;5342923;32;35622;-77
2023/03/27 12:44:29;;;;;;;;;;;;;;;9.97;68.99;98668.56;5365626;32;33147;-61
2023/03/27 12:47:31;;;;;;;;;;;;;;;9.68;70.60;98686.16;5369169;32;34204;-61
2023/03/27 12:50:34;;;;;;;;;;;;;;;10.12;65.84;98682.50;5354177;32;34160;-75
2023/03/27 12:53:36;;;;;;;;;;;;;;;9.71;67.12;98664.12;5377613;32;33031;-67
2023/03/27 12:56:38;;;;;;;;;;;;;;;9.92;65.17;98696.91;5363503;32;36452;-68
2023/03/27 12:59:50;;;;;;;;;;;;;;;9.75;65.23;98697.97;5373418;32;34598;-61
2023/03/27 13:03:12;;;;;;;;;;;;;;;9.37;65.33;98705.56;5358821;32;34397;-86
2023/03/27 13:06:17;;;;;;;;;;;;;;;9.09;64.91;98716.88;5335837;32;43171;-72
2023/03/27 13:09:37;;;;;;;;;;;;;;;9.23;65.84;98723.91;5375031;32;35392;-72
2023/03/27 13:12:58;;;;;;;;;;;;;;;9.25;64.28;98744.78;5360350;32;46209;-75
2023/03/27 13:16:03;;;;;;;;;;;;;;;8.90;63.65;98738.06;5365906;32;37103;-76
2023/03/27 13:19:24;;;;;;;;;;;;;;;8.46;64.58;98752.88;5367552;32;36031;-80
2023/03/27 13:22:30;;;;;;;;;;;;;;;8.22;63.50;98770.75;5361197;32;36046;-74
2023/03/27 13:25:37;;;;;;;;;;;;;;;8.18;64.51;98782.31;5362997;32;34102;-71
2023/03/27 13:28:41;;;;;;;;;;;;;;;8.32;63.71;98783.25;5363301;32;44967;-66
2023/03/27 13:31:43;;;;;;;;;;;;;;;8.18;63.68;98780.56;5361172;32;35361;-63
2023/03/27 13:34:59;;;;;;;;;;;;;;;8.08;64.38;98780.19;5367351;32;34191;-63
2023/03/27 13:38:01;;;;;;;;;;;;;;;7.91;63.81;98803.81;5358987;32;35443;-70
2023/03/27 13:41:29;;;;;;;;;;;;;;;7.78;63.81;98813.22;5368965;32;34370;-63
2023/03/27 13:44:40;;;;;;;;;;;;;;;7.37;63.83;98818.84;5321939;32;34337;-70
2023/03/27 13:47:45;;;;;;;;;;;;;;;7.50;62.36;98840.81;5376162;32;44660;-73
2023/03/27 13:51:05;;;;;;;;;;;;;;;7.38;62.41;98841.44;5366380;32;34330;-71
2023/03/27 13:54:07;;;;;;;;;;;;;;;6.87;63.83;98856.16;5361561;32;34271;-73
2023/03/27 13:57:22;;;;;;;;;;;;;;;7.11;63.02;98840.22;5369173;32;44692;-66
2023/03/27 14:00:31;;;;;;;;;;;;;;;7.21;62.92;98855.38;5360421;32;34009;-70
2023/03/27 14:03:33;;;;;;;;;;;;;;;7.38;62.60;98887.63;5372932;32;34437;-66
2023/03/27 14:06:53;;;;;;;;;;;;;;;6.84;63.02;98874.59;5349180;32;34544;-69
2023/03/27 14:10:16;;;;;;;;;;;;;;;6.57;62.88;98904.59;5336070;32;988798;-77
2023/03/27 14:13:27;;;;;;;;;;;;;;;6.38;63.59;98920.28;5369227;32;45093;-63
2023/03/27 14:16:58;;;;;;;;;;;;;;;6.64;63.64;98926.91;5366557;32;34407;-72
2023/03/27 14:20:20;;;;;;;;;;;;;;;6.70;63.14;98948.34;5357087;32;35395;-73
2023/03/27 14:23:27;;;;;;;;;;;;;;;6.13;64.37;98967.47;5346966;32;34322;-67
2023/03/27 14:26:29;;;;;;;;;;;;;;;6.13;64.17;98957.03;5365212;32;34524;-64
2023/03/27 14:29:33;;;;;;;;;;;;;;;6.33;63.69;98959.59;5374464;32;34200;-65
2023/03/27 14:32:35;;;;;;;;;;;;;;;6.03;64.39;98987.03;5360196;32;34428;-64
2023/03/27 14:35:42;;;;;;;;;;;;;;;5.82;65.31;98988.75;5369553;32;34406;-72
2023/03/27 14:38:45;;;;;;;;;;;;;;;6.08;64.34;98993.75;5372334;32;46681;-62
2023/03/27 14:41:48;;;;;;;;;;;;;;;5.50;62.37;99008.31;5364411;32;34403;-64
2023/03/27 14:44:52;;;;;;;;;;;;;;;6.03;61.81;99034.81;5376363;32;34355;-70
2023/03/27 14:48:13;;;;;;;;;;;;;;;5.94;59.99;99038.66;5360615;32;34200;-80
2023/03/27 14:51:18;;;;;;;;;;;;;;;5.81;60.46;99049.63;5373147;32;45784;-66
2023/03/27 14:54:30;;;;;;;;;;;;;;;6.02;59.35;99056.59;5355655;32;35566;-60
2023/03/27 14:57:49;;;;;;;;;;;;;;;5.82;58.00;99065.22;5367156;32;43863;-64
2023/03/27 15:00:56;;;;;;;;;;;;;;;5.61;58.61;99071.31;5372733;32;34315;-73
2023/03/27 15:03:58;;;;;;;;;;;;;;;5.67;57.61;99053.66;5348887;32;35815;-59
2023/03/27 15:07:12;;;;;;;;;;;;;;;5.94;57.81;99076.94;5349302;32;35248;-61
2023/03/27 15:10:14;;;;;;;;;;;;;;;5.93;56.73;99075.25;5364344;32;43233;-84
2023/03/27 15:13:16;;;;;;;;;;;;;;;5.37;57.96;99086.97;5363761;32;34359;-72
2023/03/27 15:16:25;;;;;;;;;;;;;;;5.92;57.35;99112.66;5375186;32;34239;-62
2023/03/27 15:19:29;;;;;;;;;;;;;;;5.44;57.65;99109.28;5357149;32;34112;-60
2023/03/27 15:22:32;;;;;;;;;;;;;;;5.26;58.04;99123.00;5370409;32;34644;-76
2023/03/27 15:26:04;;;;;;;;;;;;;;;5.26;58.09;99145.59;5357519;32;35540;-78
2023/03/27 15:29:12;;;;;;;;;;;;;;;5.33;57.66;99128.84;5353769;32;35834;-79
2023/03/27 15:32:17;;;;;;;;;;;;;;;5.27;57.13;99139.47;5370722;32;46226;-82
2023/03/27 15:35:35;;;;;;;;;;;;;;;5.46;56.22;99153.50;5358261;32;36894;-64
2023/03/27 15:38:37;;;;;;;;;;;;;;;4.94;56.61;99185.84;5377600;32;36825;-76
2023/03/27 15:41:40;;;;;;;;;;;;;;;5.00;56.44;99170.84;5362031;32;46583;-75
2023/03/27 15:44:42;;;;;;;;;;;;;;;5.31;55.35;99170.59;5364006;32;35359;-71
2023/03/27 15:47:55;;;;;;;;;;;;;;;5.20;55.96;99197.91;5372267;32;36013;-67
2023/03/27 15:51:04;;;;;;;;;;;;;;;5.09;55.45;99206.16;5365372;32;34220;-71
2023/03/27 15:54:24;;;;;;;;;;;;;;;4.69;56.30;99191.88;5368412;32;34302;-71
2023/03/27 15:57:28;;;;;;;;;;;;;;;5.00;55.64;99211.66;5360038;32;34398;-70
2023/03/27 16:00:30;;;;;;;;;;;;;;;4.97;54.69;99228.25;5358864;32;34319;-62
2023/03/27 16:03:33;;;;;;;;;;;;;;;4.73;55.44;99250.75;5357973;32;34371;-63
2023/03/27 16:06:37;;;;;;;;;;;;;;;4.45;55.60;99252.56;5338636;32;35110;-65
2023/03/27 16:09:48;;;;;;;;;;;;;;;4.96;54.72;99256.91;5371955;32;45251;-63
2023/03/27 16:12:51;;;;;;;;;;;;;;;4.67;54.92;99260.53;5357939;32;35225;-64